Time;durP1;ratioP1;P1;durP2;ratioP2;P2;SDS_P1;SDS_P2;PMS_P1;PMS_P2;Temp;Humidity;BMP_temperature;BMP_pressure;BME280_temperature;BME280_humidity;BME280_pressure;Samples;Min_cycle;Max_cycle;Signal;HPM_P1;HPM_P2
2021/06/20 00:00:17;;;;;;;15.37;7.40;;;;;;;25.76;67.13;98604.75;5153573;27;20507;-75
2021/06/20 00:02:44;;;;;;;15.43;7.00;;;;;;;25.65;65.48;98594.34;5153147;27;20506;-75
2021/06/20 00:05:13;;;;;;;9.93;6.07;;;;;;;25.64;65.26;98608.31;5152922;27;20463;-76
2021/06/20 00:07:41;;;;;;;17.20;5.80;;;;;;;25.69;64.03;98603.03;5153056;27;20463;-75
2021/06/20 00:10:11;;;;;;;15.10;5.80;;;;;;;25.58;63.93;98619.16;5153467;27;20553;-76
2021/06/20 00:12:39;;;;;;;10.03;5.40;;;;;;;25.49;64.39;98620.41;5156766;27;20483;-76
2021/06/20 00:15:09;;;;;;;8.60;5.53;;;;;;;25.49;63.83;98625.91;5157691;27;20423;-75
2021/06/20 00:17:36;;;;;;;10.77;4.70;;;;;;;25.44;63.86;98617.44;5164557;27;20435;-77
2021/06/20 00:20:04;;;;;;;6.43;5.13;;;;;;;25.59;63.16;98608.97;5168926;27;20431;-78
2021/06/20 00:22:30;;;;;;;9.27;4.80;;;;;;;25.58;62.66;98607.28;5169196;27;20779;-77
2021/06/20 00:24:57;;;;;;;9.87;4.40;;;;;;;25.66;61.83;98601.53;5168962;27;20439;-78
2021/06/20 00:27:25;;;;;;;9.63;4.77;;;;;;;25.66;61.94;98617.25;5167550;27;20502;-78
2021/06/20 00:29:51;;;;;;;6.30;4.70;;;;;;;25.69;61.88;98631.47;5169109;27;20503;-77
2021/06/20 00:32:18;;;;;;;9.60;4.80;;;;;;;25.71;61.65;98637.63;5170265;27;20502;-78
2021/06/20 00:34:45;;;;;;;10.77;5.00;;;;;;;25.68;61.91;98634.41;5168017;27;20434;-78
2021/06/20 00:37:11;;;;;;;6.80;4.40;;;;;;;25.73;61.98;98640.13;5165246;27;20435;-78
2021/06/20 00:39:38;;;;;;;8.57;4.57;;;;;;;25.65;62.21;98634.84;5163868;27;20419;-78
2021/06/20 00:42:05;;;;;;;7.87;4.40;;;;;;;25.56;62.51;98643.31;5162788;27;20443;-78
2021/06/20 00:44:43;;;;;;;7.67;4.83;;;;;;;25.53;62.52;98651.13;5165517;27;20517;-78
2021/06/20 00:47:10;;;;;;;9.70;5.10;;;;;;;25.54;62.56;98645.41;5168590;27;20469;-77
2021/06/20 00:49:37;;;;;;;10.87;4.77;;;;;;;25.62;62.31;98651.78;5167959;27;20613;-76
2021/06/20 00:52:04;;;;;;;9.20;4.13;;;;;;;25.63;62.29;98651.59;5169385;27;20456;-76
2021/06/20 00:54:30;;;;;;;8.37;4.40;;;;;;;25.62;62.55;98662.81;5169408;27;20470;-77
2021/06/20 00:56:58;;;;;;;6.80;4.70;;;;;;;25.61;62.85;98661.13;5171367;27;20423;-78
2021/06/20 00:59:25;;;;;;;11.03;5.23;;;;;;;25.46;64.03;98662.16;5168710;27;20434;-78
2021/06/20 01:01:53;;;;;;;10.10;4.50;;;;;;;25.41;64.89;98672.94;5163972;27;20488;-78
2021/06/20 01:04:19;;;;;;;7.83;4.37;;;;;;;25.26;65.68;98670.38;5163191;27;20466;-77
2021/06/20 01:06:46;;;;;;;13.60;4.93;;;;;;;25.16;66.13;98667.94;5166810;27;20463;-78
2021/06/20 01:09:13;;;;;;;7.37;4.57;;;;;;;25.11;66.71;98655.84;5166554;27;20443;-78
2021/06/20 01:11:39;;;;;;;8.83;4.87;;;;;;;24.91;67.47;98658.53;5161680;27;20650;-77
2021/06/20 01:14:06;;;;;;;12.33;5.37;;;;;;;24.82;67.77;98654.25;5163473;27;20427;-78
2021/06/20 01:16:33;;;;;;;12.27;4.87;;;;;;;24.74;68.16;98658.88;5161799;27;20506;-78
2021/06/20 01:19:01;;;;;;;6.90;4.80;;;;;;;24.72;68.55;98671.97;5162819;27;20455;-78
2021/06/20 01:21:28;;;;;;;8.97;4.60;;;;;;;24.62;68.82;98676.97;5160812;27;20924;-76
2021/06/20 01:23:56;;;;;;;11.47;5.10;;;;;;;24.60;69.23;98681.00;5162358;27;20484;-77
2021/06/20 01:26:22;;;;;;;6.13;4.27;;;;;;;24.57;69.51;98675.91;5161532;27;20435;-77
2021/06/20 01:28:51;;;;;;;6.80;4.63;;;;;;;24.48;69.78;98664.19;5163798;27;20427;-77
2021/06/20 01:31:18;;;;;;;7.43;4.60;;;;;;;24.41;70.14;98663.28;5165939;27;20443;-77
2021/06/20 01:33:45;;;;;;;5.63;4.97;;;;;;;24.41;70.39;98672.38;5165202;27;20511;-77
2021/06/20 01:36:13;;;;;;;11.20;4.20;;;;;;;24.32;70.91;98677.16;5164457;27;20431;-78
2021/06/20 01:38:41;;;;;;;11.10;4.90;;;;;;;24.33;71.11;98656.88;5164004;27;20514;-77
2021/06/20 01:41:09;;;;;;;11.30;5.20;;;;;;;24.19;71.92;98663.31;5164771;27;20965;-78
2021/06/20 01:43:36;;;;;;;6.43;4.43;;;;;;;23.89;72.92;98704.72;5163183;27;20416;-77
2021/06/20 01:46:02;;;;;;;8.40;4.60;;;;;;;23.70;73.88;98724.59;5159993;27;20533;-78
2021/06/20 01:48:29;;;;;;;9.40;4.90;;;;;;;23.72;73.84;98733.47;5159151;27;20546;-78
2021/06/20 01:50:55;;;;;;;5.60;4.33;;;;;;;23.51;74.40;98734.31;5164033;27;20561;-76
2021/06/20 01:53:22;;;;;;;9.67;4.80;;;;;;;23.67;74.16;98752.44;5163909;27;20511;-78
2021/06/20 01:55:49;;;;;;;6.30;4.33;;;;;;;23.40;75.51;98734.81;5163700;27;20495;-77
2021/06/20 01:58:19;;;;;;;10.13;4.70;;;;;;;23.40;75.55;98730.16;5164036;27;20438;-77
2021/06/20 02:00:47;;;;;;;8.90;4.30;;;;;;;23.30;76.89;98732.38;5166662;27;20509;-77
2021/06/20 02:03:16;;;;;;;7.87;4.50;;;;;;;23.35;76.53;98738.13;5166431;27;20432;-77
2021/06/20 02:05:46;;;;;;;6.20;3.90;;;;;;;23.40;76.70;98727.41;5145840;27;87276;-77
2021/06/20 02:08:13;;;;;;;9.53;4.87;;;;;;;23.35;77.31;98734.53;5163664;27;20589;-76
2021/06/20 02:10:41;;;;;;;5.60;4.50;;;;;;;23.16;78.65;98730.50;5166041;27;20561;-77
2021/06/20 02:13:07;;;;;;;6.90;5.07;;;;;;;23.06;79.61;98731.63;5166924;27;20452;-78
2021/06/20 02:15:36;;;;;;;10.30;4.93;;;;;;;23.14;79.42;98735.34;5171452;27;20435;-77
2021/06/20 02:18:03;;;;;;;8.20;4.50;;;;;;;23.01;80.15;98739.59;5171776;27;20446;-77
2021/06/20 02:20:30;;;;;;;12.77;5.27;;;;;;;23.14;79.51;98749.91;5168148;27;20843;-77
2021/06/20 02:22:57;;;;;;;9.23;4.40;;;;;;;23.26;79.05;98745.63;5166179;27;20487;-77
2021/06/20 02:25:26;;;;;;;7.80;4.57;;;;;;;23.22;79.44;98751.69;5170421;27;20460;-77
2021/06/20 02:27:55;;;;;;;8.47;4.53;;;;;;;23.09;80.41;98755.97;5162800;27;20529;-77
2021/06/20 02:30:23;;;;;;;7.73;4.63;;;;;;;23.15;79.62;98770.81;5172392;27;20435;-77
2021/06/20 02:32:52;;;;;;;6.93;4.33;;;;;;;23.23;79.50;98767.13;5171077;27;20430;-77
2021/06/20 02:35:20;;;;;;;8.83;4.90;;;;;;;23.22;79.48;98776.41;5163481;27;20427;-78
2021/06/20 02:37:48;;;;;;;5.77;4.03;;;;;;;23.16;79.32;98775.28;5161656;27;20431;-77
2021/06/20 02:40:17;;;;;;;9.60;4.47;;;;;;;23.06;80.56;98772.81;5161571;27;20518;-76
2021/06/20 02:42:44;;;;;;;5.80;4.50;;;;;;;22.99;80.71;98776.47;5161248;27;20526;-76
2021/06/20 02:45:14;;;;;;;7.83;3.80;;;;;;;23.00;80.57;98781.81;5161529;27;20514;-77
2021/06/20 02:47:41;;;;;;;8.70;4.57;;;;;;;23.03;80.22;98775.94;5162302;27;20475;-78
2021/06/20 02:50:10;;;;;;;4.30;3.90;;;;;;;23.08;79.89;98787.19;5162123;27;20472;-77
2021/06/20 02:52:37;;;;;;;7.27;4.20;;;;;;;22.93;80.09;98777.22;5162252;27;20488;-76
2021/06/20 02:55:04;;;;;;;4.63;3.77;;;;;;;22.81;80.68;98785.06;5164611;27;20447;-77
2021/06/20 02:57:32;;;;;;;9.53;4.50;;;;;;;22.89;80.40;98794.06;5161948;27;20525;-77
2021/06/20 03:00:02;;;;;;;8.30;4.00;;;;;;;22.90;80.22;98803.16;5160886;27;20905;-77
2021/06/20 03:02:29;;;;;;;7.07;4.40;;;;;;;22.88;80.70;98806.09;5162482;27;20950;-77
2021/06/20 03:04:57;;;;;;;9.10;3.77;;;;;;;22.78;80.30;98801.91;5163404;27;20503;-77
2021/06/20 03:07:25;;;;;;;6.77;4.00;;;;;;;22.76;80.52;98815.81;5162243;27;20499;-77
2021/06/20 03:09:52;;;;;;;5.23;4.00;;;;;;;22.84;79.28;98823.13;5160936;27;20964;-77
2021/06/20 03:12:19;;;;;;;6.70;3.80;;;;;;;22.82;79.51;98820.56;5161063;27;20525;-77
2021/06/20 03:14:45;;;;;;;8.70;4.10;;;;;;;22.84;79.25;98814.91;5161973;27;20420;-78
2021/06/20 03:17:13;;;;;;;8.90;3.53;;;;;;;22.78;78.78;98810.16;5164202;27;20487;-76
2021/06/20 03:19:42;;;;;;;12.60;4.50;;;;;;;22.75;79.08;98811.38;5164332;27;20437;-77
2021/06/20 03:22:09;;;;;;;7.03;3.63;;;;;;;22.74;78.98;98825.28;5162692;27;20459;-77
2021/06/20 03:24:40;;;;;;;8.23;4.27;;;;;;;22.77;78.18;98822.16;5162470;27;20479;-79
2021/06/20 03:27:07;;;;;;;5.37;4.03;;;;;;;22.85;77.59;98820.19;5162989;27;20434;-76
2021/06/20 03:29:33;;;;;;;7.57;3.30;;;;;;;22.77;77.92;98819.41;5162845;27;20799;-78
2021/06/20 03:32:00;;;;;;;6.10;3.70;;;;;;;22.82;77.70;98831.53;5162919;27;20459;-77
2021/06/20 03:34:27;;;;;;;14.30;5.57;;;;;;;22.82;77.25;98839.78;5161158;27;20495;-77
2021/06/20 03:36:54;;;;;;;4.97;3.53;;;;;;;22.67;78.20;98838.88;5163608;27;20430;-78
2021/06/20 03:39:20;;;;;;;6.07;3.70;;;;;;;22.45;79.22;98830.50;5165723;27;20440;-78
2021/06/20 03:41:48;;;;;;;5.23;3.77;;;;;;;22.53;78.84;98820.50;5163835;27;20440;-76
2021/06/20 03:44:15;;;;;;;7.10;4.27;;;;;;;22.45;79.74;98829.63;5162916;27;20462;-77
2021/06/20 03:46:42;;;;;;;4.50;3.43;;;;;;;22.41;79.70;98822.81;5162808;27;20497;-78
2021/06/20 03:49:08;;;;;;;5.37;3.43;;;;;;;22.33;80.38;98823.75;5164074;27;20502;-77
2021/06/20 03:51:35;;;;;;;5.97;3.43;;;;;;;22.35;80.49;98823.56;5166267;27;20499;-78
2021/06/20 03:54:02;;;;;;;5.57;4.00;;;;;;;22.43;80.17;98813.38;5165724;27;20778;-78
2021/06/20 03:56:29;;;;;;;4.83;3.10;;;;;;;22.55;79.43;98830.25;5162837;27;20453;-77
2021/06/20 03:58:57;;;;;;;4.47;3.47;;;;;;;22.53;79.36;98836.97;5159421;27;20506;-77
2021/06/20 04:01:24;;;;;;;5.73;3.77;;;;;;;22.54;79.83;98825.78;5159221;27;20495;-77
2021/06/20 04:03:50;;;;;;;6.97;3.43;;;;;;;22.76;78.08;98825.94;5159899;27;20534;-75
2021/06/20 04:06:17;;;;;;;7.57;3.43;;;;;;;22.71;78.56;98834.75;5161190;27;20620;-78
2021/06/20 04:08:44;;;;;;;5.60;3.07;;;;;;;22.94;77.23;98828.34;5154030;27;20458;-77
2021/06/20 04:11:10;;;;;;;6.03;3.27;;;;;;;22.83;77.82;98840.63;5162343;27;20461;-78
2021/06/20 04:13:37;;;;;;;6.53;3.23;;;;;;;23.09;76.38;98851.22;5162355;27;21016;-77
2021/06/20 04:16:06;;;;;;;4.83;3.40;;;;;;;23.05;76.60;98855.38;5163562;27;20437;-77
2021/06/20 04:18:32;;;;;;;4.37;2.70;;;;;;;23.09;75.94;98849.31;5160496;27;20435;-77
2021/06/20 04:20:59;;;;;;;6.57;3.57;;;;;;;23.08;75.86;98842.09;5162036;27;20484;-77
2021/06/20 04:23:25;;;;;;;10.47;3.63;;;;;;;23.00;75.95;98844.09;5159506;27;20459;-76
2021/06/20 04:25:52;;;;;;;7.07;3.27;;;;;;;22.98;76.01;98844.25;5162450;27;20434;-77
2021/06/20 04:28:20;;;;;;;5.03;3.13;;;;;;;22.95;76.40;98841.88;5162515;27;20884;-77
2021/06/20 04:30:47;;;;;;;8.80;3.70;;;;;;;22.91;76.19;98843.31;5159752;27;20441;-77
2021/06/20 04:33:18;;;;;;;5.23;3.13;;;;;;;22.81;76.44;98848.19;5159583;27;20428;-78
2021/06/20 04:35:45;;;;;;;10.23;3.20;;;;;;;22.80;76.73;98846.50;5159779;27;20453;-77
2021/06/20 04:38:11;;;;;;;4.83;3.10;;;;;;;22.95;75.80;98850.13;5158835;27;20506;-77
2021/06/20 04:40:39;;;;;;;4.60;3.37;;;;;;;23.08;74.99;98852.25;5157992;27;20481;-78
2021/06/20 04:43:07;;;;;;;6.67;3.27;;;;;;;23.20;74.18;98855.38;5155231;27;20428;-77
2021/06/20 04:45:34;;;;;;;4.10;3.10;;;;;;;23.26;73.88;98862.84;5157242;27;20440;-77
2021/06/20 04:48:01;;;;;;;5.60;3.30;;;;;;;23.32;72.96;98848.38;5156934;27;21039;-77
2021/06/20 04:50:29;;;;;;;6.03;3.23;;;;;;;23.16;73.70;98851.31;5156984;27;20450;-77
2021/06/20 04:52:56;;;;;;;5.50;3.40;;;;;;;23.17;72.71;98844.78;5156774;27;21030;-77
2021/06/20 04:55:22;;;;;;;5.20;3.40;;;;;;;23.02;73.14;98848.38;5156160;27;20985;-77
2021/06/20 04:57:49;;;;;;;6.27;3.93;;;;;;;22.94;73.29;98853.91;5158002;27;20423;-77
2021/06/20 05:00:16;;;;;;;5.13;3.80;;;;;;;22.80;73.68;98847.34;5159728;27;20435;-80
2021/06/20 05:02:43;;;;;;;5.63;4.10;;;;;;;22.78;73.21;98852.16;5156896;27;20420;-78
2021/06/20 05:05:11;;;;;;;5.10;3.60;;;;;;;22.84;73.24;98862.41;5143039;27;20466;-78
2021/06/20 05:07:39;;;;;;;5.37;3.50;;;;;;;22.89;72.20;98859.09;5137363;27;20443;-79
2021/06/20 05:10:07;;;;;;;5.33;4.00;;;;;;;22.76;71.96;98862.47;5137761;27;20482;-77
2021/06/20 05:12:34;;;;;;;6.70;4.10;;;;;;;22.78;72.08;98862.28;5137185;27;20511;-77
2021/06/20 05:15:00;;;;;;;5.33;3.67;;;;;;;22.92;70.79;98869.69;5138731;27;20441;-77
2021/06/20 05:17:27;;;;;;;6.33;3.57;;;;;;;22.96;70.57;98871.03;5136407;27;20522;-76
2021/06/20 05:19:54;;;;;;;6.10;3.03;;;;;;;22.99;70.15;98867.94;5137206;27;20416;-76
2021/06/20 05:22:21;;;;;;;4.93;3.20;;;;;;;23.02;70.41;98855.72;5138270;27;20777;-77
2021/06/20 05:24:49;;;;;;;3.27;2.97;;;;;;;23.10;69.72;98863.88;5137139;27;20468;-78
2021/06/20 05:27:16;;;;;;;7.47;3.93;;;;;;;23.21;69.59;98851.59;5138220;27;20499;-77
2021/06/20 05:29:43;;;;;;;4.07;3.27;;;;;;;22.99;69.95;98862.44;5136949;27;20464;-78
2021/06/20 05:32:14;;;;;;;4.83;3.40;;;;;;;23.05;70.16;98869.09;5138561;27;20425;-78
2021/06/20 05:34:41;;;;;;;4.23;3.13;;;;;;;22.87;70.80;98851.03;5144337;27;20424;-74
2021/06/20 05:37:07;;;;;;;5.00;3.90;;;;;;;22.95;70.67;98852.88;5148296;27;20926;-73
2021/06/20 05:39:34;;;;;;;5.87;3.57;;;;;;;22.83;71.22;98849.69;5158630;27;20495;-77
2021/06/20 05:42:02;;;;;;;5.83;3.50;;;;;;;22.74;71.86;98849.97;5155872;27;20487;-73
2021/06/20 05:44:29;;;;;;;3.97;3.47;;;;;;;22.77;71.96;98860.56;5156272;27;20952;-73
2021/06/20 05:46:55;;;;;;;5.70;4.00;;;;;;;22.88;71.43;98857.38;5156089;27;20770;-75
2021/06/20 05:49:22;;;;;;;5.80;3.50;;;;;;;23.20;70.27;98867.22;5155846;27;20479;-75
2021/06/20 05:51:49;;;;;;;4.53;4.00;;;;;;;23.49;69.43;98863.63;5155845;27;20511;-75
2021/06/20 05:54:15;;;;;;;8.10;3.70;;;;;;;23.39;69.52;98852.06;5155589;27;20450;-75
2021/06/20 05:56:42;;;;;;;4.27;3.40;;;;;;;23.36;69.51;98854.31;5155571;27;20530;-75
2021/06/20 05:59:10;;;;;;;5.10;3.83;;;;;;;23.71;68.17;98870.03;5155811;27;20425;-75
2021/06/20 06:01:36;;;;;;;5.27;3.40;;;;;;;23.79;67.50;98869.13;5155306;27;20461;-75
2021/06/20 06:04:03;;;;;;;7.33;3.57;;;;;;;23.89;66.90;98868.81;5155396;27;20483;-74
2021/06/20 06:06:30;;;;;;;7.17;3.70;;;;;;;24.19;65.82;98868.72;5155778;27;20426;-74
2021/06/20 06:08:57;;;;;;;4.50;3.50;;;;;;;24.18;65.50;98867.03;5153941;27;20475;-74
2021/06/20 06:11:23;;;;;;;12.90;3.33;;;;;;;24.43;64.19;98862.00;5155333;27;20999;-75
2021/06/20 06:13:50;;;;;;;4.03;3.33;;;;;;;24.19;64.25;98869.56;5155607;27;20501;-75
2021/06/20 06:16:18;;;;;;;4.67;3.30;;;;;;;24.13;64.29;98867.63;5155069;27;20458;-73
2021/06/20 06:18:45;;;;;;;6.60;3.53;;;;;;;24.08;64.70;98883.84;5155548;27;20769;-75
2021/06/20 06:21:11;;;;;;;5.13;3.03;;;;;;;23.92;65.17;98876.66;5155156;27;20419;-75
2021/06/20 06:23:38;;;;;;;3.90;2.77;;;;;;;23.96;65.57;98890.88;5155038;27;20434;-75
2021/06/20 06:26:04;;;;;;;3.87;3.40;;;;;;;23.91;64.52;98885.97;5154794;27;20535;-74
2021/06/20 06:28:31;;;;;;;8.27;3.80;;;;;;;23.87;64.88;98890.16;5154711;27;20565;-74
2021/06/20 06:30:58;;;;;;;7.30;3.00;;;;;;;23.80;64.92;98889.22;5154916;27;20524;-74
2021/06/20 06:33:26;;;;;;;4.57;3.30;;;;;;;23.75;65.79;98887.03;5155124;27;20437;-75
2021/06/20 06:35:52;;;;;;;3.33;3.00;;;;;;;23.98;65.03;98889.66;5155099;27;20423;-75
2021/06/20 06:38:19;;;;;;;5.27;3.57;;;;;;;24.20;63.75;98882.31;5154966;27;20425;-75
2021/06/20 06:40:46;;;;;;;3.30;3.00;;;;;;;24.55;62.74;98882.47;5154643;27;20428;-75
2021/06/20 06:43:12;;;;;;;5.47;3.37;;;;;;;24.24;62.57;98883.63;5154575;27;20419;-74
2021/06/20 06:45:39;;;;;;;3.70;3.13;;;;;;;24.43;61.93;98879.38;5154649;27;20525;-74
2021/06/20 06:48:07;;;;;;;4.67;3.50;;;;;;;24.30;62.62;98879.22;5155333;27;20419;-74
2021/06/20 06:50:35;;;;;;;7.73;3.60;;;;;;;24.31;63.20;98867.19;5154779;27;20454;-75
2021/06/20 06:53:02;;;;;;;4.60;3.83;;;;;;;24.75;61.87;98864.25;5154847;27;20772;-74
2021/06/20 06:55:28;;;;;;;4.73;3.43;;;;;;;25.04;61.57;98869.78;5154538;27;20419;-75
2021/06/20 06:57:55;;;;;;;5.37;3.30;;;;;;;25.25;60.94;98879.91;5154652;27;20478;-75
2021/06/20 07:00:22;;;;;;;5.53;3.70;;;;;;;25.61;58.94;98874.19;5154811;27;20501;-75
2021/06/20 07:02:49;;;;;;;5.90;3.70;;;;;;;25.64;58.97;98879.28;5154631;27;20426;-75
2021/06/20 07:05:15;;;;;;;5.50;3.67;;;;;;;25.29;59.99;98879.31;5154213;27;20899;-76
2021/06/20 07:07:43;;;;;;;5.70;3.70;;;;;;;25.21;60.22;98882.22;5154221;27;20515;-74
2021/06/20 07:10:10;;;;;;;5.10;3.23;;;;;;;25.16;59.80;98871.75;5154529;27;20832;-75
2021/06/20 07:12:37;;;;;;;4.97;3.40;;;;;;;25.10;59.96;98869.84;5154539;27;20435;-75
2021/06/20 07:15:05;;;;;;;7.20;3.47;;;;;;;25.14;60.20;98853.75;5154397;27;20514;-75
2021/06/20 07:17:32;;;;;;;5.90;3.57;;;;;;;25.11;60.25;98848.66;5154065;27;20460;-75
2021/06/20 07:19:59;;;;;;;4.70;3.57;;;;;;;24.94;60.62;98837.06;5154086;27;20821;-75
2021/06/20 07:22:25;;;;;;;4.57;3.43;;;;;;;24.52;61.72;98838.84;5153952;27;20423;-75
2021/06/20 07:24:53;;;;;;;6.90;3.70;;;;;;;24.04;63.81;98824.81;5153766;27;20427;-75
2021/06/20 07:27:20;;;;;;;4.87;3.30;;;;;;;23.89;64.01;98813.84;5154246;27;20439;-75
2021/06/20 07:29:47;;;;;;;7.13;4.00;;;;;;;24.20;62.67;98808.03;5154073;27;20455;-75
2021/06/20 07:32:14;;;;;;;3.47;3.17;;;;;;;24.29;61.96;98809.63;5153659;27;20442;-75
2021/06/20 07:34:41;;;;;;;5.33;4.03;;;;;;;24.37;59.39;98822.38;5153648;27;20523;-75
2021/06/20 07:37:07;;;;;;;3.93;3.40;;;;;;;24.54;59.04;98828.50;5154038;27;20494;-75
2021/06/20 07:39:34;;;;;;;7.03;3.40;;;;;;;24.95;57.75;98825.03;5153801;27;20518;-75
2021/06/20 07:42:03;;;;;;;3.90;3.17;;;;;;;25.34;56.66;98840.97;5153884;27;20420;-75
2021/06/20 07:44:30;;;;;;;4.67;3.60;;;;;;;25.49;56.31;98853.78;5153935;27;20423;-74
2021/06/20 07:46:56;;;;;;;7.07;3.47;;;;;;;25.83;55.12;98869.44;5154085;27;20442;-74
2021/06/20 07:49:23;;;;;;;3.30;2.97;;;;;;;26.23;53.81;98875.13;5153526;27;20481;-75
2021/06/20 07:51:49;;;;;;;3.80;3.00;;;;;;;26.82;52.42;98860.59;5153432;27;20423;-75
2021/06/20 07:54:16;;;;;;;4.27;3.50;;;;;;;27.32;50.80;98854.63;5153812;27;20523;-75
2021/06/20 07:56:43;;;;;;;4.93;3.60;;;;;;;27.49;50.26;98862.47;5153446;27;20442;-75
2021/06/20 07:59:11;;;;;;;4.57;3.73;;;;;;;27.04;51.65;98847.44;5153296;27;20412;-75
2021/06/20 08:01:39;;;;;;;3.60;3.17;;;;;;;27.36;50.04;98849.50;5153530;27;20435;-75
2021/06/20 08:04:06;;;;;;;5.37;3.03;;;;;;;27.23;50.32;98848.47;5153583;27;20866;-75
2021/06/20 08:06:32;;;;;;;5.30;3.10;;;;;;;27.19;50.69;98854.63;5153694;27;20459;-75
2021/06/20 08:08:59;;;;;;;4.93;3.30;;;;;;;27.38;50.47;98847.38;5153541;27;20956;-74
2021/06/20 08:11:26;;;;;;;3.97;3.20;;;;;;;27.38;49.69;98852.91;5153478;27;20434;-74
2021/06/20 08:13:53;;;;;;;3.23;2.93;;;;;;;27.24;49.60;98841.88;5153562;27;20965;-75
2021/06/20 08:16:21;;;;;;;3.70;3.23;;;;;;;27.04;50.01;98841.03;5153163;27;20439;-75
2021/06/20 08:18:49;;;;;;;6.00;3.63;;;;;;;26.60;50.87;98848.91;5153309;27;20424;-75
2021/06/20 08:21:16;;;;;;;3.43;3.20;;;;;;;26.57;51.75;98842.94;5153094;27;20455;-75
2021/06/20 08:23:43;;;;;;;3.97;3.57;;;;;;;26.88;51.11;98839.56;5153547;27;20807;-75
2021/06/20 08:26:10;;;;;;;3.73;3.10;;;;;;;27.13;50.33;98850.78;5153476;27;20444;-75
2021/06/20 08:28:36;;;;;;;4.13;2.83;;;;;;;27.61;49.48;98847.75;5153256;27;20523;-75
2021/06/20 08:31:04;;;;;;;3.10;2.80;;;;;;;27.87;48.41;98854.28;5153231;27;20472;-75
2021/06/20 08:33:32;;;;;;;6.27;3.10;;;;;;;28.08;47.98;98850.34;5156502;27;20824;-75
2021/06/20 08:35:58;;;;;;;3.30;3.00;;;;;;;27.53;49.36;98855.44;5157330;27;20436;-74
2021/06/20 08:38:25;;;;;;;5.00;3.80;;;;;;;27.35;49.64;98856.97;5157561;27;20506;-75
2021/06/20 08:40:55;;;;;;;6.23;3.13;;;;;;;27.11;50.47;98847.38;5156937;27;20427;-75
2021/06/20 08:43:21;;;;;;;4.23;3.30;;;;;;;26.91;51.15;98841.03;5157426;27;20664;-75
2021/06/20 08:45:51;;;;;;;3.80;3.40;;;;;;;26.59;52.22;98843.56;5157539;27;20522;-75
2021/06/20 08:48:18;;;;;;;4.30;3.90;;;;;;;26.74;52.18;98848.91;5157083;27;20952;-75
2021/06/20 08:50:46;;;;;;;4.47;3.50;;;;;;;27.03;51.58;98842.94;5157172;27;20920;-75
2021/06/20 08:53:15;;;;;;;6.27;3.33;;;;;;;27.77;48.78;98845.56;5157004;27;20502;-75
2021/06/20 08:55:43;;;;;;;4.17;3.80;;;;;;;28.17;47.83;98850.94;5156802;27;20432;-74
2021/06/20 08:58:18;;;;;;;5.47;3.90;;;;;;;27.98;48.18;98855.50;5156607;27;20519;-75
2021/06/20 09:00:45;;;;;;;4.00;3.00;;;;;;;27.93;48.40;98853.41;5156969;27;20475;-74
2021/06/20 09:03:12;;;;;;;5.23;4.30;;;;;;;28.14;47.49;98857.78;5156829;27;20788;-75
2021/06/20 09:05:38;;;;;;;4.30;4.00;;;;;;;28.78;46.17;98843.94;5156486;27;20469;-75
2021/06/20 09:08:16;;;;;;;8.10;3.47;;;;;;;28.81;45.55;98830.50;5156705;27;20423;-75
2021/06/20 09:10:43;;;;;;;3.53;3.13;;;;;;;28.84;44.91;98818.97;5156429;27;20547;-76
2021/06/20 09:13:09;;;;;;;3.60;2.80;;;;;;;29.30;44.04;98814.06;5156867;27;20419;-75
2021/06/20 09:15:36;;;;;;;3.10;2.87;;;;;;;28.92;45.14;98825.28;5156171;27;20427;-75
2021/06/20 09:18:05;;;;;;;3.07;2.80;;;;;;;29.13;44.77;98819.38;5156453;27;20514;-75
2021/06/20 09:20:35;;;;;;;4.43;4.00;;;;;;;29.56;44.44;98810.16;5156660;27;20431;-75
2021/06/20 09:23:05;;;;;;;4.00;3.47;;;;;;;29.76;43.41;98815.50;5156578;27;20445;-75
2021/06/20 09:25:33;;;;;;;3.87;3.57;;;;;;;28.76;45.40;98822.00;5156354;27;20467;-74
2021/06/20 09:28:02;;;;;;;4.20;3.30;;;;;;;29.42;44.09;98816.91;5156371;27;20486;-75
2021/06/20 09:30:31;;;;;;;3.90;3.50;;;;;;;28.77;45.47;98818.19;5156309;27;20491;-74
2021/06/20 09:33:00;;;;;;;3.73;3.43;;;;;;;29.24;44.72;98807.53;5156462;27;20431;-75
2021/06/20 09:35:30;;;;;;;3.87;3.57;;;;;;;29.67;44.05;98795.53;5155442;27;20519;-74
2021/06/20 09:37:58;;;;;;;4.20;3.70;;;;;;;29.47;44.67;98792.16;5156296;27;20915;-74
2021/06/20 09:40:27;;;;;;;5.73;3.90;;;;;;;29.29;44.83;98806.84;5156281;27;20433;-74
2021/06/20 09:42:56;;;;;;;4.13;3.73;;;;;;;29.28;44.37;98808.78;5155460;27;20434;-73
2021/06/20 09:45:27;;;;;;;7.00;3.80;;;;;;;28.12;47.25;98803.72;5155397;27;20477;-73
2021/06/20 09:47:54;;;;;;;4.60;3.80;;;;;;;26.96;50.16;98797.06;5155728;27;20763;-73
2021/06/20 09:50:36;;;;;;;4.60;4.17;;;;;;;27.15;50.00;98781.50;5155099;27;20972;-74
2021/06/20 09:53:03;;;;;;;3.97;3.63;;;;;;;26.92;50.64;98780.06;5155168;27;20746;-74
2021/06/20 09:55:30;;;;;;;4.67;3.47;;;;;;;26.95;50.78;98778.78;5155379;27;20506;-74
2021/06/20 09:58:02;;;;;;;4.30;3.80;;;;;;;27.35;50.18;98762.16;5155523;27;20449;-75
2021/06/20 10:00:37;;;;;;;4.40;4.00;;;;;;;27.77;48.71;98759.81;5154712;27;20484;-76
2021/06/20 10:03:04;;;;;;;5.50;5.00;;;;;;;27.93;47.79;98764.88;5155600;27;20437;-75
2021/06/20 10:05:30;;;;;;;4.40;3.50;;;;;;;27.64;48.25;98764.34;5154638;27;20479;-75
2021/06/20 10:07:57;;;;;;;4.23;3.83;;;;;;;28.11;47.03;98757.72;5154916;27;20443;-75
2021/06/20 10:10:24;;;;;;;4.53;3.97;;;;;;;28.64;44.96;98755.44;5154662;27;20832;-74
2021/06/20 10:12:51;;;;;;;5.30;3.97;;;;;;;28.99;43.83;98756.81;5155389;27;20431;-74
2021/06/20 10:15:21;;;;;;;4.30;3.50;;;;;;;29.00;43.91;98750.19;5154378;27;20534;-74
2021/06/20 10:17:55;;;;;;;5.10;4.70;;;;;;;28.85;44.89;98756.09;5154910;27;20510;-75
2021/06/20 10:20:22;;;;;;;5.67;4.20;;;;;;;28.95;44.80;98758.38;5154380;27;20426;-73
2021/06/20 10:22:51;;;;;;;5.00;3.70;;;;;;;28.90;44.64;98750.72;5152740;27;20850;-74
2021/06/20 10:25:26;;;;;;;5.60;3.70;;;;;;;28.90;44.39;98742.44;5152800;27;20435;-75
2021/06/20 10:28:03;;;;;;;4.07;3.77;;;;;;;29.12;44.67;98740.06;5153614;27;20443;-75
2021/06/20 10:30:34;;;;;;;5.47;3.70;;;;;;;29.31;44.12;98725.13;5153499;27;20467;-75
2021/06/20 10:33:07;;;;;;;3.77;3.47;;;;;;;29.35;43.62;98730.22;5153810;27;21352;-75
2021/06/20 10:35:35;;;;;;;4.60;4.20;;;;;;;29.26;44.29;98713.91;5153369;27;20802;-76
2021/06/20 10:38:02;;;;;;;5.40;3.37;;;;;;;28.95;43.91;98700.19;5154025;27;20477;-75
2021/06/20 10:40:31;;;;;;;5.37;3.60;;;;;;;29.03;44.08;98702.63;5151322;27;20428;-74
2021/06/20 10:42:59;;;;;;;4.13;3.67;;;;;;;29.04;43.98;98696.88;5152957;27;20439;-75
2021/06/20 10:45:29;;;;;;;7.43;3.30;;;;;;;29.26;43.61;98702.81;5152942;27;20439;-73
2021/06/20 10:47:58;;;;;;;4.30;3.90;;;;;;;29.23;43.58;98710.75;5152805;27;20526;-74
2021/06/20 10:50:36;;;;;;;6.10;3.80;;;;;;;28.84;44.49;98707.31;5153222;27;21255;-75
2021/06/20 10:53:03;;;;;;;5.20;4.57;;;;;;;28.96;44.47;98696.31;5153421;27;20512;-74
2021/06/20 10:55:40;;;;;;;5.70;3.40;;;;;;;28.56;44.99;98682.88;5151272;27;20447;-74
2021/06/20 10:58:22;;;;;;;5.03;4.20;;;;;;;28.67;45.28;98663.63;5152958;27;20449;-74
2021/06/20 11:00:50;;;;;;;3.67;3.10;;;;;;;28.76;45.02;98666.06;5152794;27;20439;-74
2021/06/20 11:03:25;;;;;;;3.90;3.60;;;;;;;28.80;44.70;98670.06;5152565;27;20435;-75
2021/06/20 11:05:54;;;;;;;5.00;3.17;;;;;;;29.14;43.20;98671.41;5152144;27;20440;-74
2021/06/20 11:08:29;;;;;;;4.73;3.23;;;;;;;29.42;42.20;98662.53;5152487;27;20443;-74
2021/06/20 11:11:15;;;;;;;3.70;3.20;;;;;;;29.36;42.66;98654.28;5152578;27;20576;-74
2021/06/20 11:13:44;;;;;;;3.37;3.00;;;;;;;29.03;43.28;98658.28;5152446;27;20439;-75
2021/06/20 11:16:13;;;;;;;6.03;3.80;;;;;;;29.26;43.00;98652.94;5153444;27;20439;-75
2021/06/20 11:18:41;;;;;;;4.27;3.47;;;;;;;29.31;42.20;98644.75;5152519;27;20484;-75
2021/06/20 11:21:08;;;;;;;4.90;4.50;;;;;;;29.41;42.44;98646.13;5152238;27;20447;-75
2021/06/20 11:23:36;;;;;;;4.60;4.07;;;;;;;29.05;42.88;98656.97;5153293;27;20439;-76
2021/06/20 11:26:04;;;;;;;9.53;3.63;;;;;;;28.74;43.33;98644.16;5151234;27;20475;-75
2021/06/20 11:28:30;;;;;;;5.23;3.30;;;;;;;28.54;44.14;98637.94;5153239;27;20442;-74
2021/06/20 11:31:08;;;;;;;3.33;3.10;;;;;;;29.13;43.39;98635.63;5152680;27;20483;-75
2021/06/20 11:33:35;;;;;;;4.70;3.50;;;;;;;29.69;41.98;98654.72;5151533;27;20746;-75